Huvudsida
METAR-TAF:

METAR-TAF

Flygplatser :

Arvidsjaur flygplats

Arvidsjaur, Sverige

latitud: 65-35-25N, longitud: 019-16-55E, höjd: 379 m

Aktuellt väderrapport

Denna rapport gjordes för 22 minuter sedan, klockan 04:50 UTC
Vind 15 kt från väst/nordväst
Temperatur 5°C
Fuktighet 70%
Tryck 1025 hPa
Sikt 10 km eller mer

METAR: ESNX 170450Z AUTO 30015KT 9999 NCD 05/00 Q1025

Tid: 06:12 (05:12 UTC)

Väderprognos

Denna rapport gjordes för 11 timmar och 42 minuter sedan, klockan 17:30 UTC
Prognos gäller från 16 kl. 18 UTC till 16 kl. 21 UTC
Vind 15 kt från väst/sydväst
Sikt 10 km eller mer
Inga moln under 1 500 m eller inga cumulonimbus
Temporärt
från 16 kl. 18 UTC till 16 kl. 21 UTC
Vind 15 kt från väst/sydväst i byarna ända upp till 25 kt

TAF: ESNX 161730Z 1618/1621 24015KT CAVOK TEMPO 1618/1621 25015G25KT

Aktuella väderrapporter och prognoser från 4000 flygplatser (METAR- och TAF-rapporter).

De tillgängliga stationerna syns som gula och röda prickar på kartan.

För musen över prickarna för att se namnen på stationerna.

Klicka sedan för att få väderrapporter och prognoser.

För att ändra kartan: Klicka på de gröna knapparna med ett svart kors på för att zooma in; den gröna knappen med ett streck på för att zooma ut; eller på de gröna pilarna för angränsande kartor.


METAR-TAF: